createdAt,value
2022-10-22T00:00:18.112Z,85.67
2022-10-22T00:02:44.822Z,85.12
2022-10-22T00:05:11.619Z,85.11
2022-10-22T00:07:39.996Z,85.45
2022-10-22T00:10:08.555Z,85.32
2022-10-22T00:12:35.567Z,85.20
2022-10-22T00:15:02.314Z,85.47
2022-10-22T00:17:28.891Z,85.71
2022-10-22T00:19:55.801Z,85.34
2022-10-22T00:22:22.379Z,85.49
2022-10-22T00:24:50.459Z,85.20
2022-10-22T00:27:17.110Z,85.59
2022-10-22T00:29:43.770Z,85.52
2022-10-22T00:32:10.436Z,85.53
2022-10-22T00:34:37.240Z,85.39
2022-10-22T00:37:03.860Z,85.41
2022-10-22T00:39:30.735Z,85.74
2022-10-22T00:41:59.305Z,85.83
2022-10-22T00:45:02.094Z,85.46
2022-10-22T00:47:32.195Z,85.36
2022-10-22T00:50:00.121Z,85.71
2022-10-22T00:52:27.681Z,85.43
2022-10-22T00:54:54.734Z,85.55
2022-10-22T00:57:25.797Z,85.69
2022-10-22T00:59:58.279Z,85.43
2022-10-22T01:02:25.007Z,85.75
2022-10-22T01:04:51.658Z,85.47
2022-10-22T01:07:22.192Z,85.45
2022-10-22T01:10:00.425Z,85.55
2022-10-22T01:12:42.780Z,85.58
2022-10-22T01:15:20.137Z,85.45
2022-10-22T01:17:55.827Z,85.46
2022-10-22T01:20:37.891Z,85.83
2022-10-22T01:23:17.595Z,85.53
2022-10-22T01:25:50.479Z,85.86
2022-10-22T01:28:26.321Z,85.65
2022-10-22T01:30:58.094Z,85.54
2022-10-22T01:33:27.580Z,86.03
2022-10-22T01:35:55.239Z,85.71
2022-10-22T01:38:24.844Z,85.67
2022-10-22T01:40:55.529Z,85.74
2022-10-22T01:43:22.212Z,85.61
2022-10-22T01:45:51.697Z,85.83
2022-10-22T01:48:34.809Z,85.51
2022-10-22T01:51:24.456Z,85.71
2022-10-22T01:53:57.216Z,85.66
2022-10-22T01:56:50.365Z,85.71
2022-10-22T01:59:28.006Z,85.62
2022-10-22T02:01:59.585Z,85.86
2022-10-22T02:04:33.753Z,86.07
2022-10-22T02:07:05.290Z,85.75
2022-10-22T02:09:36.160Z,85.86
2022-10-22T02:14:41.376Z,85.98
2022-10-22T02:17:11.575Z,85.75
2022-10-22T02:19:46.345Z,85.99
2022-10-22T02:22:13.521Z,86.00
2022-10-22T02:24:40.566Z,85.73
2022-10-22T02:27:12.611Z,86.08
2022-10-22T02:29:42.381Z,85.81
2022-10-22T02:32:12.295Z,85.75
2022-10-22T02:34:41.138Z,86.11
2022-10-22T02:37:08.432Z,86.17
2022-10-22T02:39:37.000Z,85.91
2022-10-22T02:42:03.997Z,85.69
2022-10-22T02:44:30.915Z,85.78
2022-10-22T02:46:58.796Z,85.84
2022-10-22T02:49:25.431Z,86.22
2022-10-22T02:51:53.415Z,86.03
2022-10-22T02:54:19.985Z,86.06
2022-10-22T02:56:46.833Z,86.13
2022-10-22T02:59:13.430Z,86.27
2022-10-22T03:01:40.270Z,85.97
2022-10-22T03:04:08.151Z,86.26
2022-10-22T03:06:35.538Z,86.26
2022-10-22T03:09:03.653Z,86.32
2022-10-22T03:11:30.320Z,86.56
2022-10-22T03:13:56.953Z,86.32
2022-10-22T03:16:23.523Z,86.08
2022-10-22T03:18:50.342Z,86.60
2022-10-22T03:21:31.888Z,86.73
2022-10-22T03:24:01.405Z,86.34
2022-10-22T03:26:29.920Z,86.67
2022-10-22T03:28:56.728Z,86.58
2022-10-22T03:31:23.374Z,86.29
2022-10-22T03:33:50.038Z,86.74
2022-10-22T03:36:16.842Z,86.71
2022-10-22T03:38:43.478Z,86.67
2022-10-22T03:41:10.883Z,86.62
2022-10-22T03:43:39.751Z,86.72
2022-10-22T03:46:06.225Z,86.74
2022-10-22T03:48:32.868Z,86.96
2022-10-22T03:50:59.507Z,86.62
2022-10-22T03:53:26.382Z,86.93
2022-10-22T03:55:52.991Z,86.46
2022-10-22T03:58:19.563Z,86.61
2022-10-22T04:00:47.646Z,87.17
2022-10-22T04:03:14.283Z,86.92
2022-10-22T04:05:40.988Z,86.81
2022-10-22T04:08:07.657Z,87.20
2022-10-22T04:10:34.351Z,86.92
2022-10-22T04:13:01.365Z,86.92
2022-10-22T04:15:29.200Z,86.88
2022-10-22T04:17:57.252Z,87.24
2022-10-22T04:20:23.879Z,87.01
2022-10-22T04:22:50.571Z,87.07
2022-10-22T04:25:17.436Z,87.53
2022-10-22T04:27:44.120Z,87.60
2022-10-22T04:30:11.842Z,87.69
2022-10-22T04:32:38.679Z,87.81
2022-10-22T04:35:08.013Z,87.57
2022-10-22T04:37:34.666Z,87.93
2022-10-22T04:40:01.667Z,88.11
2022-10-22T04:42:28.324Z,88.23
2022-10-22T04:44:55.159Z,88.37
2022-10-22T04:47:21.973Z,88.52
2022-10-22T04:49:48.576Z,88.39
2022-10-22T04:52:16.645Z,88.32
2022-10-22T04:54:43.245Z,88.73
2022-10-22T04:57:09.873Z,88.76
2022-10-22T04:59:36.515Z,88.87
2022-10-22T05:02:03.439Z,88.62
2022-10-22T05:04:30.125Z,88.70
2022-10-22T05:06:56.785Z,89.01
2022-10-22T05:09:24.697Z,88.89
2022-10-22T05:11:52.914Z,89.00
2022-10-22T05:14:21.142Z,89.23
2022-10-22T05:16:49.068Z,89.11
2022-10-22T05:19:18.419Z,89.24
2022-10-22T05:21:45.191Z,89.19
2022-10-22T05:24:12.037Z,89.36
2022-10-22T05:26:40.233Z,89.38
2022-10-22T05:29:07.013Z,89.45
2022-10-22T05:31:33.815Z,89.28
2022-10-22T05:34:00.467Z,89.17
2022-10-22T05:36:27.642Z,89.38
2022-10-22T05:38:54.472Z,89.41
2022-10-22T05:41:22.641Z,89.49
2022-10-22T05:43:50.856Z,89.45
2022-10-22T05:46:22.459Z,89.32
2022-10-22T05:48:51.552Z,89.66
2022-10-22T05:51:19.259Z,89.51
2022-10-22T05:53:45.973Z,89.42
2022-10-22T05:56:15.177Z,89.80
2022-10-22T05:58:42.706Z,89.62
2022-10-22T06:01:14.065Z,89.40
2022-10-22T06:03:40.860Z,89.44
2022-10-22T06:06:27.742Z,89.73
2022-10-22T06:08:55.933Z,89.48
2022-10-22T06:11:23.821Z,89.55
2022-10-22T06:13:51.230Z,89.60
2022-10-22T06:16:19.399Z,89.61
2022-10-22T06:18:46.077Z,89.54
2022-10-22T06:21:15.162Z,89.61
2022-10-22T06:23:42.892Z,89.70
2022-10-22T06:26:10.002Z,90.07
2022-10-22T06:28:37.181Z,89.68
2022-10-22T06:31:05.041Z,89.89
2022-10-22T06:33:34.375Z,89.83
2022-10-22T06:36:07.662Z,89.63
2022-10-22T06:38:34.669Z,89.61
2022-10-22T06:41:04.045Z,89.87
2022-10-22T06:43:31.052Z,89.82
2022-10-22T06:46:00.935Z,89.51
2022-10-22T06:48:27.829Z,89.58
2022-10-22T06:50:56.249Z,89.51
2022-10-22T06:53:23.009Z,89.56
2022-10-22T06:55:49.712Z,89.53
2022-10-22T06:58:16.850Z,89.56
2022-10-22T07:00:46.031Z,89.47
2022-10-22T07:03:13.923Z,89.53
2022-10-22T07:05:41.231Z,89.20
2022-10-22T07:08:09.970Z,89.53
2022-10-22T07:10:36.582Z,89.39
2022-10-22T07:13:03.197Z,89.26
2022-10-22T07:15:31.169Z,89.20
2022-10-22T07:17:57.759Z,89.20
2022-10-22T07:20:24.566Z,89.34
2022-10-22T07:22:53.739Z,89.55
2022-10-22T07:25:24.303Z,89.38
2022-10-22T07:27:51.343Z,89.32
2022-10-22T07:30:21.470Z,89.43
2022-10-22T07:32:48.072Z,89.36
2022-10-22T07:35:15.193Z,89.28
2022-10-22T07:37:42.213Z,89.34
2022-10-22T07:40:10.282Z,89.30
2022-10-22T07:42:38.245Z,89.13
2022-10-22T07:45:05.662Z,89.29
2022-10-22T07:47:32.360Z,89.38
2022-10-22T07:49:59.214Z,89.30
2022-10-22T07:52:25.910Z,89.30
2022-10-22T07:54:52.563Z,88.97
2022-10-22T07:57:19.170Z,89.18
2022-10-22T07:59:47.212Z,89.09
2022-10-22T08:02:14.207Z,88.90
2022-10-22T08:04:41.086Z,89.23
2022-10-22T08:07:07.740Z,89.12
2022-10-22T08:09:36.086Z,88.88
2022-10-22T08:12:02.996Z,88.99
2022-10-22T08:14:30.991Z,88.91
2022-10-22T08:16:58.907Z,88.87
2022-10-22T08:19:25.786Z,88.74
2022-10-22T08:21:55.242Z,88.89
2022-10-22T08:24:22.383Z,88.82
2022-10-22T08:26:49.053Z,88.71
2022-10-22T08:29:15.829Z,88.59
2022-10-22T08:31:42.497Z,88.60
2022-10-22T08:34:10.926Z,88.59
2022-10-22T08:36:37.540Z,88.42
2022-10-22T08:39:04.848Z,88.23
2022-10-22T08:41:36.388Z,88.40
2022-10-22T08:44:31.663Z,88.27
2022-10-22T08:47:26.009Z,88.08
2022-10-22T08:49:57.000Z,87.97
2022-10-22T08:52:23.583Z,87.95
2022-10-22T08:54:53.777Z,87.88
2022-10-22T08:57:34.207Z,87.83
2022-10-22T09:00:06.285Z,87.71
2022-10-22T09:02:44.114Z,87.82
2022-10-22T09:05:23.545Z,87.66
2022-10-22T09:07:50.980Z,87.30
2022-10-22T09:10:20.080Z,87.40
2022-10-22T09:12:48.001Z,87.32
2022-10-22T09:15:15.822Z,87.09
2022-10-22T09:17:53.209Z,87.09
2022-10-22T09:20:28.591Z,86.91
2022-10-22T09:23:05.510Z,86.98
2022-10-22T09:25:36.801Z,86.93
2022-10-22T09:28:05.942Z,87.24
2022-10-22T09:30:36.359Z,87.21
2022-10-22T09:33:11.359Z,87.29
2022-10-22T09:35:46.306Z,87.07
2022-10-22T09:38:16.551Z,87.30
2022-10-22T09:40:45.479Z,87.15
2022-10-22T09:43:13.838Z,87.31
2022-10-22T09:45:44.237Z,87.42
2022-10-22T09:48:18.729Z,87.09
2022-10-22T09:50:50.480Z,87.34
2022-10-22T09:53:20.018Z,87.04
2022-10-22T09:55:51.505Z,87.13
2022-10-22T09:58:21.970Z,87.17
2022-10-22T10:00:53.445Z,87.13
2022-10-22T10:03:22.897Z,87.11
2022-10-22T10:05:54.441Z,87.08
2022-10-22T10:08:21.363Z,86.96
2022-10-22T10:10:51.172Z,87.00
2022-10-22T10:13:47.034Z,86.78
2022-10-22T10:16:27.527Z,86.73
2022-10-22T10:19:09.939Z,86.84
2022-10-22T10:21:44.447Z,86.58
2022-10-22T10:24:22.637Z,86.52
2022-10-22T10:26:58.222Z,86.69
2022-10-22T10:32:30.143Z,86.44
2022-10-22T10:35:07.248Z,86.68
2022-10-22T10:37:41.569Z,86.45
2022-10-22T10:40:20.424Z,86.23
2022-10-22T10:42:55.449Z,86.36
2022-10-22T10:45:30.489Z,86.05
2022-10-22T10:48:21.577Z,86.11
2022-10-22T10:51:02.043Z,86.01
2022-10-22T10:53:44.661Z,85.92
2022-10-22T10:56:25.201Z,85.75
2022-10-22T10:59:00.378Z,85.78
2022-10-22T11:01:37.513Z,85.64
2022-10-22T11:04:28.521Z,85.49
2022-10-22T11:07:11.143Z,85.23
2022-10-22T11:09:50.819Z,85.39
2022-10-22T11:12:23.605Z,85.21
2022-10-22T11:14:59.266Z,85.22
2022-10-22T11:17:33.776Z,84.91
2022-10-22T11:20:06.250Z,84.86
2022-10-22T11:22:40.290Z,84.57
2022-10-22T11:25:20.323Z,84.49
2022-10-22T11:27:51.866Z,84.12
2022-10-22T11:30:20.979Z,83.68
2022-10-22T11:32:50.672Z,83.50
2022-10-22T11:35:25.654Z,83.19
2022-10-22T11:37:55.876Z,82.92
2022-10-22T11:40:34.459Z,82.44
2022-10-22T11:43:04.080Z,81.71
2022-10-22T11:45:35.544Z,81.58
2022-10-22T11:48:12.363Z,81.47
2022-10-22T11:50:52.835Z,80.98
2022-10-22T11:53:30.790Z,80.73
2022-10-22T11:56:05.086Z,80.71
2022-10-22T11:58:42.654Z,80.52
2022-10-22T12:01:42.925Z,80.37
2022-10-22T12:04:22.294Z,80.32
2022-10-22T12:07:00.673Z,80.14
2022-10-22T12:09:31.979Z,80.08
2022-10-22T12:12:14.722Z,79.73
2022-10-22T12:14:53.714Z,79.80
2022-10-22T12:17:22.029Z,79.93
2022-10-22T12:19:51.141Z,79.74
2022-10-22T12:22:24.154Z,79.77
2022-10-22T12:24:53.976Z,80.01
2022-10-22T12:27:24.898Z,79.61
2022-10-22T12:29:55.539Z,79.67
2022-10-22T12:32:22.539Z,79.80
2022-10-22T12:34:50.962Z,79.44
2022-10-22T12:37:18.851Z,79.35
2022-10-22T12:39:46.463Z,79.27
2022-10-22T12:42:15.603Z,79.36
2022-10-22T12:44:45.067Z,79.26
2022-10-22T12:47:15.862Z,79.13
2022-10-22T12:49:46.842Z,79.28
2022-10-22T12:52:20.261Z,79.27
2022-10-22T12:54:48.891Z,79.14
2022-10-22T12:57:19.577Z,79.21
2022-10-22T12:59:50.198Z,78.75
2022-10-22T13:02:21.723Z,78.73
2022-10-22T13:05:16.146Z,78.35
2022-10-22T13:07:46.482Z,78.69
2022-10-22T13:10:22.812Z,78.60
2022-10-22T13:12:51.371Z,78.48
2022-10-22T13:15:33.902Z,78.70
2022-10-22T13:18:16.050Z,78.72
2022-10-22T13:20:53.797Z,78.65
2022-10-22T13:23:22.891Z,78.47
2022-10-22T13:25:59.530Z,78.38
2022-10-22T13:28:27.498Z,78.41
2022-10-22T13:30:57.793Z,78.33
2022-10-22T13:33:27.404Z,78.38
2022-10-22T13:35:55.454Z,78.25
2022-10-22T13:38:24.522Z,78.30
2022-10-22T13:40:54.129Z,78.06
2022-10-22T13:43:25.154Z,78.21
2022-10-22T13:45:56.354Z,78.11
2022-10-22T13:48:25.605Z,78.03
2022-10-22T13:50:52.851Z,78.13
2022-10-22T13:53:22.025Z,77.96
2022-10-22T13:55:55.111Z,77.93
2022-10-22T13:58:29.555Z,77.92
2022-10-22T14:00:59.879Z,77.91
2022-10-22T14:03:30.196Z,77.82
2022-10-22T14:05:57.473Z,77.86
2022-10-22T14:08:26.299Z,77.85
2022-10-22T14:10:53.721Z,77.53
2022-10-22T14:13:23.637Z,77.49
2022-10-22T14:15:52.165Z,77.41
2022-10-22T14:18:25.623Z,77.26
2022-10-22T14:20:54.986Z,77.22
2022-10-22T14:23:24.078Z,77.02
2022-10-22T14:25:51.224Z,76.95
2022-10-22T14:28:18.094Z,76.93
2022-10-22T14:30:45.650Z,76.75
2022-10-22T14:33:15.242Z,76.81
2022-10-22T14:35:43.327Z,76.91
2022-10-22T14:38:10.281Z,76.90
2022-10-22T14:40:38.989Z,76.79
2022-10-22T14:43:06.378Z,76.87
2022-10-22T14:45:33.289Z,76.87
2022-10-22T14:48:00.176Z,76.94
2022-10-22T14:50:26.907Z,76.87
2022-10-22T14:52:59.014Z,76.63
2022-10-22T14:55:27.146Z,76.56
2022-10-22T14:57:54.004Z,76.61
2022-10-22T15:00:21.617Z,76.74
2022-10-22T15:02:48.627Z,76.77
2022-10-22T15:05:16.019Z,76.66
2022-10-22T15:07:43.585Z,76.66
2022-10-22T15:10:11.900Z,76.82
2022-10-22T15:12:38.555Z,76.68
2022-10-22T15:15:06.354Z,76.87
2022-10-22T15:17:33.050Z,76.76
2022-10-22T15:20:04.130Z,76.80
2022-10-22T15:22:31.745Z,76.86
2022-10-22T15:24:58.406Z,76.83
2022-10-22T15:27:26.473Z,76.93
2022-10-22T15:29:53.236Z,76.96
2022-10-22T15:32:19.930Z,76.93
2022-10-22T15:34:46.558Z,77.06
2022-10-22T15:37:14.050Z,77.06
2022-10-22T15:39:41.557Z,77.12
2022-10-22T15:42:08.883Z,77.11
2022-10-22T15:44:39.759Z,77.18
2022-10-22T15:47:07.542Z,77.12
2022-10-22T15:49:36.251Z,76.96
2022-10-22T15:52:03.728Z,76.96
2022-10-22T15:54:31.076Z,77.04
2022-10-22T15:56:59.552Z,76.92
2022-10-22T15:59:26.554Z,77.14
2022-10-22T16:01:54.601Z,76.97
2022-10-22T16:04:23.300Z,77.24
2022-10-22T16:06:52.725Z,77.05
2022-10-22T16:09:21.758Z,77.42
2022-10-22T16:11:49.546Z,77.44
2022-10-22T16:14:18.088Z,77.54
2022-10-22T16:16:45.913Z,77.69
2022-10-22T16:19:16.043Z,77.87
2022-10-22T16:21:42.739Z,78.00
2022-10-22T16:24:09.662Z,78.21
2022-10-22T16:26:36.575Z,78.57
2022-10-22T16:29:04.502Z,78.65
2022-10-22T16:31:31.368Z,78.75
2022-10-22T16:33:58.156Z,78.74
2022-10-22T16:36:26.336Z,78.92
2022-10-22T16:38:53.101Z,79.05
2022-10-22T16:41:21.590Z,79.14
2022-10-22T16:43:49.928Z,79.24
2022-10-22T16:46:17.646Z,79.62
2022-10-22T16:48:45.546Z,79.72
2022-10-22T16:51:14.350Z,79.69
2022-10-22T16:53:42.661Z,79.69
2022-10-22T16:56:10.376Z,79.91
2022-10-22T16:58:37.645Z,79.93
2022-10-22T17:01:06.529Z,80.08
2022-10-22T17:03:33.221Z,79.95
2022-10-22T17:06:00.342Z,80.09
2022-10-22T17:08:27.305Z,80.21
2022-10-22T17:10:55.353Z,80.49
2022-10-22T17:13:22.175Z,80.50
2022-10-22T17:15:49.005Z,80.67
2022-10-22T17:18:15.777Z,80.48
2022-10-22T17:20:43.339Z,80.45
2022-10-22T17:23:10.142Z,80.67
2022-10-22T17:25:43.358Z,80.83
2022-10-22T17:28:11.564Z,80.77
2022-10-22T17:30:40.741Z,80.76
2022-10-22T17:33:07.967Z,80.68
2022-10-22T17:35:35.516Z,81.15
2022-10-22T17:38:02.567Z,81.05
2022-10-22T17:40:30.779Z,81.13
2022-10-22T17:42:57.423Z,81.40
2022-10-22T17:45:25.453Z,81.40
2022-10-22T17:47:52.332Z,81.44
2022-10-22T17:50:19.330Z,81.38
2022-10-22T17:52:46.169Z,81.58
2022-10-22T17:55:13.574Z,81.49
2022-10-22T17:57:40.520Z,81.59
2022-10-22T18:00:08.348Z,81.56
2022-10-22T18:02:36.409Z,81.65
2022-10-22T18:05:03.221Z,81.69
2022-10-22T18:07:29.822Z,81.85
2022-10-22T18:09:56.557Z,81.92
2022-10-22T18:12:23.466Z,81.72
2022-10-22T18:14:50.255Z,82.19
2022-10-22T18:17:16.995Z,82.11
2022-10-22T18:19:44.924Z,81.94
2022-10-22T18:22:14.667Z,82.16
2022-10-22T18:24:41.839Z,81.96
2022-10-22T18:27:08.611Z,82.17
2022-10-22T18:29:35.309Z,82.17
2022-10-22T18:32:03.782Z,82.25
2022-10-22T18:34:32.510Z,82.06
2022-10-22T18:37:00.563Z,82.24
2022-10-22T18:39:27.374Z,82.26
2022-10-22T18:41:54.775Z,82.38
2022-10-22T18:44:22.935Z,82.50
2022-10-22T18:46:49.667Z,82.44
2022-10-22T18:49:18.475Z,82.33
2022-10-22T18:51:46.333Z,82.57
2022-10-22T18:54:28.882Z,82.47
2022-10-22T18:57:02.565Z,82.40
2022-10-22T18:59:30.042Z,82.84
2022-10-22T19:02:00.353Z,82.71
2022-10-22T19:04:31.002Z,82.56
2022-10-22T19:06:58.121Z,82.84
2022-10-22T19:09:26.581Z,82.79
2022-10-22T19:11:53.320Z,82.94
2022-10-22T19:14:21.110Z,82.95
2022-10-22T19:16:48.200Z,83.21
2022-10-22T19:19:18.095Z,83.03
2022-10-22T19:21:44.985Z,83.11
2022-10-22T19:24:13.706Z,82.90
2022-10-22T19:26:41.944Z,83.03
2022-10-22T19:29:08.747Z,83.10
2022-10-22T19:31:35.312Z,82.93
2022-10-22T19:34:02.611Z,83.30
2022-10-22T19:36:31.480Z,83.43
2022-10-22T19:38:59.339Z,83.39
2022-10-22T19:41:28.228Z,83.14
2022-10-22T19:43:57.932Z,83.35
2022-10-22T19:46:25.851Z,83.34
2022-10-22T19:48:53.580Z,83.45
2022-10-22T19:51:22.526Z,83.65
2022-10-22T19:53:50.322Z,83.72
2022-10-22T19:56:21.870Z,83.46
2022-10-22T19:58:48.572Z,83.54
2022-10-22T20:01:18.170Z,83.89
2022-10-22T20:03:45.313Z,83.89
2022-10-22T20:06:14.563Z,83.76
2022-10-22T20:08:41.540Z,83.69
2022-10-22T20:11:10.879Z,83.65
2022-10-22T20:16:10.045Z,84.08
2022-10-22T20:18:38.974Z,83.92
2022-10-22T20:21:09.163Z,84.01
2022-10-22T20:23:36.068Z,83.93
2022-10-22T20:26:04.264Z,84.05
2022-10-22T20:28:31.192Z,84.01
2022-10-22T20:30:57.843Z,84.26
2022-10-22T20:33:24.512Z,84.18
2022-10-22T20:36:02.838Z,84.12
2022-10-22T20:38:29.523Z,84.06
2022-10-22T20:41:00.876Z,84.42
2022-10-22T20:43:27.449Z,84.43
2022-10-22T20:45:54.641Z,84.52
2022-10-22T20:48:21.692Z,84.30
2022-10-22T20:50:48.345Z,84.56
2022-10-22T20:53:16.978Z,84.29
2022-10-22T20:55:43.844Z,84.54
2022-10-22T20:58:10.518Z,84.58
2022-10-22T21:00:39.285Z,84.52
2022-10-22T21:03:05.748Z,84.70
2022-10-22T21:05:32.462Z,84.59
2022-10-22T21:07:59.122Z,84.49
2022-10-22T21:10:32.267Z,84.54
2022-10-22T21:12:59.470Z,84.63
2022-10-22T21:15:27.022Z,84.71
2022-10-22T21:17:54.184Z,84.51
2022-10-22T21:20:23.792Z,84.89
2022-10-22T21:22:52.452Z,84.77
2022-10-22T21:25:19.515Z,85.03
2022-10-22T21:27:47.471Z,84.82
2022-10-22T21:30:14.106Z,84.69
2022-10-22T21:32:41.082Z,84.83
2022-10-22T21:35:08.351Z,85.02
2022-10-22T21:37:40.671Z,84.84
2022-10-22T21:40:08.987Z,84.82
2022-10-22T21:42:35.659Z,85.21
2022-10-22T21:45:06.173Z,85.32
2022-10-22T21:47:35.756Z,85.34
2022-10-22T21:50:02.407Z,85.00
2022-10-22T21:52:29.090Z,85.44
2022-10-22T21:54:55.704Z,85.33
2022-10-22T21:57:22.381Z,85.22
2022-10-22T21:59:48.935Z,85.26
2022-10-22T22:02:17.387Z,85.25
2022-10-22T22:04:44.268Z,85.50
2022-10-22T22:07:10.812Z,85.40
2022-10-22T22:09:37.575Z,85.58
2022-10-22T22:12:04.450Z,85.54
2022-10-22T22:14:32.671Z,85.56
2022-10-22T22:17:01.783Z,85.93
2022-10-22T22:19:29.914Z,85.88
2022-10-22T22:21:56.466Z,85.89
2022-10-22T22:24:23.220Z,85.81
2022-10-22T22:26:49.843Z,85.77
2022-10-22T22:29:16.582Z,85.82
2022-10-22T22:31:43.657Z,86.07
2022-10-22T22:34:12.875Z,86.17
2022-10-22T22:36:42.900Z,85.97
2022-10-22T22:39:12.361Z,85.93
2022-10-22T22:41:39.233Z,86.18
2022-10-22T22:44:06.495Z,85.68
2022-10-22T22:46:34.147Z,85.84
2022-10-22T22:49:01.044Z,86.03
2022-10-22T22:51:31.012Z,86.09
2022-10-22T22:54:00.197Z,85.84
2022-10-22T22:56:28.346Z,85.96
2022-10-22T22:58:56.426Z,85.99
2022-10-22T23:01:25.186Z,85.95
2022-10-22T23:03:53.172Z,86.27
2022-10-22T23:06:19.951Z,85.93
2022-10-22T23:08:49.154Z,85.97
2022-10-22T23:11:17.648Z,85.96
2022-10-22T23:13:44.738Z,85.86
2022-10-22T23:16:14.698Z,86.14
2022-10-22T23:18:42.135Z,85.99
2022-10-22T23:21:13.838Z,86.32
2022-10-22T23:23:44.038Z,86.45
2022-10-22T23:26:11.460Z,86.37
2022-10-22T23:28:42.536Z,86.69
2022-10-22T23:31:12.602Z,86.27
2022-10-22T23:33:39.278Z,86.65
2022-10-22T23:36:09.165Z,86.51
2022-10-22T23:38:37.077Z,86.44
2022-10-22T23:41:06.894Z,86.63
2022-10-22T23:43:36.153Z,86.69
2022-10-22T23:46:05.368Z,86.43
2022-10-22T23:48:31.975Z,86.73
2022-10-22T23:51:06.356Z,86.52
2022-10-22T23:53:33.088Z,86.61
2022-10-22T23:56:04.483Z,86.68
2022-10-22T23:58:33.764Z,86.62
